Airfield :
LOGIN :

Register | Disclaimer

   EN    FR    IT 

 










Legend :    VFR   Marginal VFR   IFR   Intensive IFR   Very Intensive IFR
Visi :
Ceiling :
>= 8 km
>= 3000ft
5 to 8 km
1000 to 3000 ft
1500m to 5 km
500 to 1000 ft
800 to 1500m
200 to 500 ft
< 800m
< 200 ft
Symbols :   Thunderstorms  Fog  Heavy snow  Heavy precipitations  Wind > 20 kt
SIGMETs :     Misc.  Thunderstorms  Icing  Turbulence  Mountain Waves  Volcanic Ashes






- Airport Elevation : 124 ft
- IATA code : RNS


LFRN - Rennes

CURRENT METAR :
  • 221230Z AUTO 32010KT 9999 OVC044 14/07 Q1026 NOSIG

EXPIRED METARs :
  • 221200Z AUTO 33007KT 310V020 9999 BKN043 BKN049 14/05 Q1026 NOSIG
  • 221130Z AUTO 31007KT 9999 FEW034 13/06 Q1026 NOSIG
  • 221100Z AUTO 34003KT 310V020 CAVOK 14/08 Q1026 NOSIG
  • 221030Z AUTO VRB03KT CAVOK 13/08 Q1025 NOSIG
  • 221000Z AUTO VRB03KT CAVOK 12/09 Q1025 NOSIG

TAF TAF LFRN
Valid from the 22 at 12:00 until the 23 at 12:00 UTC


221100Z 2212/2312 30008KT 9999 SCT040
BECMG 2217/2220 VRB03KT
PROB40
TEMPO 2222/2308 3000 BR
ATIS : +33 2 99 67 72 50



MET'MAP, your aeronautical weather chart ! - Copyright ORBIFLY December 2007 - Disclaimer

ORBIFLY MET'MAP TEAM :

Programming & Development : Alexandra Zaïnal
Concept & original design : Baudouin d'Aumeries
Assistance for programming : Marc-Olivier Méhu
Technical & hardware support : Manuel Goepfert

Contact : metmap@orbifly.com




SOURCES & CREDITS :

   NOAA